sensor_id;sensor_type;location;lat;lon;timestamp;P1;durP1;ratioP1;P2;durP2;ratioP2
61096;SDS011;46977;50.936;6.908;2022-08-21T00:01:47;10.02;;;6.78;;
61096;SDS011;46977;50.936;6.908;2022-08-21T00:04:50;9.95;;;6.22;;
61096;SDS011;46977;50.936;6.908;2022-08-21T00:08:00;7.30;;;6.00;;
61096;SDS011;46977;50.936;6.908;2022-08-21T00:11:02;8.07;;;6.03;;
61096;SDS011;46977;50.936;6.908;2022-08-21T00:14:06;6.72;;;5.72;;
61096;SDS011;46977;50.936;6.908;2022-08-21T00:17:10;9.88;;;5.75;;
61096;SDS011;46977;50.936;6.908;2022-08-21T00:20:13;11.80;;;6.32;;
61096;SDS011;46977;50.936;6.908;2022-08-21T00:23:18;8.70;;;6.15;;
61096;SDS011;46977;50.936;6.908;2022-08-21T00:26:20;9.20;;;6.60;;
61096;SDS011;46977;50.936;6.908;2022-08-21T00:29:23;12.23;;;6.57;;
61096;SDS011;46977;50.936;6.908;2022-08-21T00:32:28;10.27;;;5.82;;
61096;SDS011;46977;50.936;6.908;2022-08-21T00:35:31;7.90;;;5.53;;
61096;SDS011;46977;50.936;6.908;2022-08-21T00:38:36;9.55;;;5.75;;
61096;SDS011;46977;50.936;6.908;2022-08-21T00:41:39;8.20;;;5.70;;
61096;SDS011;46977;50.936;6.908;2022-08-21T00:44:42;7.50;;;5.95;;
61096;SDS011;46977;50.936;6.908;2022-08-21T00:47:45;11.65;;;5.55;;
61096;SDS011;46977;50.936;6.908;2022-08-21T00:50:48;10.07;;;5.60;;
61096;SDS011;46977;50.936;6.908;2022-08-21T00:53:57;8.35;;;5.88;;
61096;SDS011;46977;50.936;6.908;2022-08-21T00:57:13;9.32;;;6.45;;
61096;SDS011;46977;50.936;6.908;2022-08-21T01:00:21;8.85;;;6.82;;
61096;SDS011;46977;50.936;6.908;2022-08-21T01:03:26;8.73;;;6.18;;
61096;SDS011;46977;50.936;6.908;2022-08-21T01:06:29;10.63;;;6.97;;
61096;SDS011;46977;50.936;6.908;2022-08-21T01:09:33;11.68;;;7.32;;
61096;SDS011;46977;50.936;6.908;2022-08-21T01:12:35;7.85;;;6.13;;
61096;SDS011;46977;50.936;6.908;2022-08-21T01:15:38;7.70;;;6.32;;
61096;SDS011;46977;50.936;6.908;2022-08-21T01:18:42;10.82;;;7.45;;
61096;SDS011;46977;50.936;6.908;2022-08-21T01:21:47;10.25;;;6.78;;
61096;SDS011;46977;50.936;6.908;2022-08-21T01:24:49;11.57;;;7.25;;
61096;SDS011;46977;50.936;6.908;2022-08-21T01:27:51;11.55;;;8.57;;
61096;SDS011;46977;50.936;6.908;2022-08-21T01:30:54;16.80;;;8.00;;
61096;SDS011;46977;50.936;6.908;2022-08-21T01:33:56;13.05;;;8.20;;
61096;SDS011;46977;50.936;6.908;2022-08-21T01:37:00;12.27;;;7.47;;
61096;SDS011;46977;50.936;6.908;2022-08-21T01:40:03;11.77;;;7.28;;
61096;SDS011;46977;50.936;6.908;2022-08-21T01:43:06;10.73;;;7.45;;
61096;SDS011;46977;50.936;6.908;2022-08-21T01:46:09;13.38;;;8.32;;
61096;SDS011;46977;50.936;6.908;2022-08-21T01:49:12;11.70;;;7.63;;
61096;SDS011;46977;50.936;6.908;2022-08-21T01:52:15;14.40;;;7.32;;
61096;SDS011;46977;50.936;6.908;2022-08-21T01:55:19;10.38;;;7.45;;
61096;SDS011;46977;50.936;6.908;2022-08-21T01:58:22;11.73;;;7.57;;
61096;SDS011;46977;50.936;6.908;2022-08-21T02:01:25;9.80;;;7.07;;
61096;SDS011;46977;50.936;6.908;2022-08-21T02:04:27;14.73;;;8.18;;
61096;SDS011;46977;50.936;6.908;2022-08-21T02:07:36;9.68;;;7.60;;
61096;SDS011;46977;50.936;6.908;2022-08-21T02:10:39;11.50;;;8.13;;
61096;SDS011;46977;50.936;6.908;2022-08-21T02:13:49;8.90;;;7.10;;
61096;SDS011;46977;50.936;6.908;2022-08-21T02:16:52;14.25;;;8.63;;
61096;SDS011;46977;50.936;6.908;2022-08-21T02:20:11;9.95;;;7.40;;
61096;SDS011;46977;50.936;6.908;2022-08-21T02:23:20;10.65;;;7.40;;
61096;SDS011;46977;50.936;6.908;2022-08-21T02:26:28;16.80;;;8.00;;
61096;SDS011;46977;50.936;6.908;2022-08-21T02:29:30;12.65;;;8.05;;
61096;SDS011;46977;50.936;6.908;2022-08-21T02:32:33;10.68;;;8.07;;
61096;SDS011;46977;50.936;6.908;2022-08-21T02:35:38;11.73;;;6.80;;
61096;SDS011;46977;50.936;6.908;2022-08-21T02:38:42;13.70;;;8.43;;
61096;SDS011;46977;50.936;6.908;2022-08-21T02:41:45;8.57;;;6.70;;
61096;SDS011;46977;50.936;6.908;2022-08-21T02:44:47;12.82;;;7.10;;
61096;SDS011;46977;50.936;6.908;2022-08-21T02:47:50;11.52;;;7.63;;
61096;SDS011;46977;50.936;6.908;2022-08-21T02:50:54;15.68;;;7.93;;
61096;SDS011;46977;50.936;6.908;2022-08-21T02:53:59;13.18;;;7.38;;
61096;SDS011;46977;50.936;6.908;2022-08-21T02:57:02;12.88;;;7.18;;
61096;SDS011;46977;50.936;6.908;2022-08-21T03:00:05;10.27;;;6.60;;
61096;SDS011;46977;50.936;6.908;2022-08-21T03:03:09;12.88;;;7.53;;
61096;SDS011;46977;50.936;6.908;2022-08-21T03:06:12;12.50;;;6.97;;
61096;SDS011;46977;50.936;6.908;2022-08-21T03:09:17;13.27;;;6.63;;
61096;SDS011;46977;50.936;6.908;2022-08-21T03:12:19;10.48;;;6.97;;
61096;SDS011;46977;50.936;6.908;2022-08-21T03:15:23;13.02;;;7.53;;
61096;SDS011;46977;50.936;6.908;2022-08-21T03:18:26;7.85;;;6.18;;
61096;SDS011;46977;50.936;6.908;2022-08-21T03:21:28;9.57;;;6.50;;
61096;SDS011;46977;50.936;6.908;2022-08-21T03:24:32;11.70;;;5.82;;
61096;SDS011;46977;50.936;6.908;2022-08-21T03:27:34;13.27;;;6.88;;
61096;SDS011;46977;50.936;6.908;2022-08-21T03:30:40;12.23;;;6.70;;
61096;SDS011;46977;50.936;6.908;2022-08-21T03:33:43;11.90;;;6.60;;
61096;SDS011;46977;50.936;6.908;2022-08-21T03:36:45;11.55;;;7.43;;
61096;SDS011;46977;50.936;6.908;2022-08-21T03:39:49;10.65;;;7.80;;
61096;SDS011;46977;50.936;6.908;2022-08-21T03:42:51;11.85;;;7.95;;
61096;SDS011;46977;50.936;6.908;2022-08-21T03:45:54;15.55;;;8.00;;
61096;SDS011;46977;50.936;6.908;2022-08-21T03:48:57;12.38;;;8.75;;
61096;SDS011;46977;50.936;6.908;2022-08-21T03:51:59;15.82;;;8.38;;
61096;SDS011;46977;50.936;6.908;2022-08-21T03:55:03;10.38;;;7.68;;
61096;SDS011;46977;50.936;6.908;2022-08-21T03:58:06;12.63;;;8.02;;
61096;SDS011;46977;50.936;6.908;2022-08-21T04:01:17;13.00;;;8.43;;
61096;SDS011;46977;50.936;6.908;2022-08-21T04:04:20;14.25;;;8.63;;
61096;SDS011;46977;50.936;6.908;2022-08-21T04:07:22;12.15;;;8.50;;
61096;SDS011;46977;50.936;6.908;2022-08-21T04:10:27;14.13;;;9.52;;
61096;SDS011;46977;50.936;6.908;2022-08-21T04:13:30;14.55;;;9.85;;
61096;SDS011;46977;50.936;6.908;2022-08-21T04:16:33;20.45;;;11.15;;
61096;SDS011;46977;50.936;6.908;2022-08-21T04:19:35;17.45;;;10.60;;
61096;SDS011;46977;50.936;6.908;2022-08-21T04:22:38;16.95;;;9.32;;
61096;SDS011;46977;50.936;6.908;2022-08-21T04:25:42;13.32;;;10.32;;
61096;SDS011;46977;50.936;6.908;2022-08-21T04:28:46;15.68;;;10.27;;
61096;SDS011;46977;50.936;6.908;2022-08-21T04:31:48;15.82;;;10.60;;
61096;SDS011;46977;50.936;6.908;2022-08-21T04:34:56;14.15;;;9.68;;
61096;SDS011;46977;50.936;6.908;2022-08-21T04:38:00;15.90;;;9.88;;
61096;SDS011;46977;50.936;6.908;2022-08-21T04:41:04;12.88;;;9.82;;
61096;SDS011;46977;50.936;6.908;2022-08-21T04:44:08;14.07;;;9.98;;
61096;SDS011;46977;50.936;6.908;2022-08-21T04:47:10;12.55;;;9.63;;
61096;SDS011;46977;50.936;6.908;2022-08-21T04:50:13;17.77;;;10.80;;
61096;SDS011;46977;50.936;6.908;2022-08-21T04:53:29;12.35;;;8.98;;
61096;SDS011;46977;50.936;6.908;2022-08-21T04:56:36;24.52;;;15.00;;
61096;SDS011;46977;50.936;6.908;2022-08-21T04:59:44;16.92;;;10.00;;
61096;SDS011;46977;50.936;6.908;2022-08-21T05:02:48;14.18;;;9.70;;
61096;SDS011;46977;50.936;6.908;2022-08-21T05:05:52;10.45;;;8.65;;
61096;SDS011;46977;50.936;6.908;2022-08-21T05:08:54;13.23;;;8.50;;
61096;SDS011;46977;50.936;6.908;2022-08-21T05:12:04;15.60;;;9.13;;
61096;SDS011;46977;50.936;6.908;2022-08-21T05:15:07;11.75;;;7.88;;
61096;SDS011;46977;50.936;6.908;2022-08-21T05:18:14;9.13;;;7.05;;
61096;SDS011;46977;50.936;6.908;2022-08-21T05:21:16;12.00;;;6.85;;
61096;SDS011;46977;50.936;6.908;2022-08-21T05:24:19;9.98;;;6.53;;
61096;SDS011;46977;50.936;6.908;2022-08-21T05:27:22;10.23;;;6.25;;
61096;SDS011;46977;50.936;6.908;2022-08-21T05:30:28;8.32;;;5.78;;
61096;SDS011;46977;50.936;6.908;2022-08-21T05:33:31;9.85;;;5.65;;
61096;SDS011;46977;50.936;6.908;2022-08-21T05:36:36;9.43;;;5.95;;
61096;SDS011;46977;50.936;6.908;2022-08-21T05:39:39;10.30;;;5.55;;
61096;SDS011;46977;50.936;6.908;2022-08-21T05:43:03;8.70;;;5.53;;
61096;SDS011;46977;50.936;6.908;2022-08-21T05:46:06;8.27;;;5.00;;
61096;SDS011;46977;50.936;6.908;2022-08-21T05:49:09;9.68;;;6.30;;
61096;SDS011;46977;50.936;6.908;2022-08-21T05:52:17;6.95;;;5.38;;
61096;SDS011;46977;50.936;6.908;2022-08-21T05:55:20;10.55;;;5.07;;
61096;SDS011;46977;50.936;6.908;2022-08-21T05:58:24;9.07;;;4.30;;
61096;SDS011;46977;50.936;6.908;2022-08-21T06:01:27;8.75;;;4.60;;
61096;SDS011;46977;50.936;6.908;2022-08-21T06:04:34;6.32;;;3.78;;
61096;SDS011;46977;50.936;6.908;2022-08-21T06:07:37;8.85;;;4.50;;
61096;SDS011;46977;50.936;6.908;2022-08-21T06:10:40;6.80;;;3.70;;
61096;SDS011;46977;50.936;6.908;2022-08-21T06:13:43;9.10;;;3.20;;
61096;SDS011;46977;50.936;6.908;2022-08-21T06:16:46;6.25;;;2.88;;
61096;SDS011;46977;50.936;6.908;2022-08-21T06:19:50;8.18;;;3.60;;
61096;SDS011;46977;50.936;6.908;2022-08-21T06:22:53;5.18;;;2.80;;
61096;SDS011;46977;50.936;6.908;2022-08-21T06:25:55;5.07;;;2.97;;
61096;SDS011;46977;50.936;6.908;2022-08-21T06:28:59;4.45;;;2.35;;
61096;SDS011;46977;50.936;6.908;2022-08-21T06:32:02;3.83;;;2.10;;
61096;SDS011;46977;50.936;6.908;2022-08-21T06:35:05;5.82;;;2.50;;
61096;SDS011;46977;50.936;6.908;2022-08-21T06:38:08;8.10;;;3.40;;
61096;SDS011;46977;50.936;6.908;2022-08-21T06:41:11;5.93;;;2.00;;
61096;SDS011;46977;50.936;6.908;2022-08-21T06:44:16;5.43;;;2.25;;
61096;SDS011;46977;50.936;6.908;2022-08-21T06:47:21;7.50;;;3.05;;
61096;SDS011;46977;50.936;6.908;2022-08-21T06:50:23;5.55;;;1.75;;
61096;SDS011;46977;50.936;6.908;2022-08-21T06:53:26;4.95;;;1.50;;
61096;SDS011;46977;50.936;6.908;2022-08-21T06:56:28;4.53;;;1.70;;
61096;SDS011;46977;50.936;6.908;2022-08-21T06:59:33;6.97;;;1.83;;
61096;SDS011;46977;50.936;6.908;2022-08-21T07:02:36;4.15;;;1.70;;
61096;SDS011;46977;50.936;6.908;2022-08-21T07:05:42;4.57;;;1.60;;
61096;SDS011;46977;50.936;6.908;2022-08-21T07:08:45;5.30;;;2.03;;
61096;SDS011;46977;50.936;6.908;2022-08-21T07:11:48;3.05;;;1.20;;
61096;SDS011;46977;50.936;6.908;2022-08-21T07:14:54;3.45;;;1.30;;
61096;SDS011;46977;50.936;6.908;2022-08-21T07:17:56;2.88;;;1.00;;
61096;SDS011;46977;50.936;6.908;2022-08-21T07:21:00;5.53;;;1.05;;
61096;SDS011;46977;50.936;6.908;2022-08-21T07:24:03;4.75;;;1.10;;
61096;SDS011;46977;50.936;6.908;2022-08-21T07:27:06;3.55;;;1.15;;
61096;SDS011;46977;50.936;6.908;2022-08-21T07:30:12;4.97;;;1.23;;
61096;SDS011;46977;50.936;6.908;2022-08-21T07:33:14;5.07;;;1.10;;
61096;SDS011;46977;50.936;6.908;2022-08-21T07:36:17;3.38;;;0.90;;
61096;SDS011;46977;50.936;6.908;2022-08-21T07:39:19;3.45;;;0.93;;
61096;SDS011;46977;50.936;6.908;2022-08-21T07:42:22;6.25;;;1.00;;
61096;SDS011;46977;50.936;6.908;2022-08-21T07:45:27;4.00;;;1.02;;
61096;SDS011;46977;50.936;6.908;2022-08-21T07:48:30;2.70;;;0.70;;
61096;SDS011;46977;50.936;6.908;2022-08-21T07:51:32;2.15;;;0.68;;
61096;SDS011;46977;50.936;6.908;2022-08-21T07:54:35;3.50;;;0.70;;
61096;SDS011;46977;50.936;6.908;2022-08-21T07:57:38;3.05;;;0.65;;
61096;SDS011;46977;50.936;6.908;2022-08-21T08:00:42;3.40;;;0.60;;
61096;SDS011;46977;50.936;6.908;2022-08-21T08:03:44;3.00;;;0.90;;
61096;SDS011;46977;50.936;6.908;2022-08-21T08:06:47;3.05;;;0.60;;
61096;SDS011;46977;50.936;6.908;2022-08-21T08:09:49;3.95;;;0.90;;
61096;SDS011;46977;50.936;6.908;2022-08-21T08:12:52;4.25;;;0.65;;
61096;SDS011;46977;50.936;6.908;2022-08-21T08:15:57;1.33;;;0.60;;
61096;SDS011;46977;50.936;6.908;2022-08-21T08:19:00;3.25;;;0.60;;
61096;SDS011;46977;50.936;6.908;2022-08-21T08:22:11;1.40;;;0.70;;
61096;SDS011;46977;50.936;6.908;2022-08-21T08:25:14;3.97;;;0.75;;
61096;SDS011;46977;50.936;6.908;2022-08-21T08:28:17;5.47;;;0.80;;
61096;SDS011;46977;50.936;6.908;2022-08-21T08:31:21;4.13;;;0.80;;
61096;SDS011;46977;50.936;6.908;2022-08-21T08:34:26;1.85;;;0.60;;
61096;SDS011;46977;50.936;6.908;2022-08-21T08:37:29;2.80;;;0.60;;
61096;SDS011;46977;50.936;6.908;2022-08-21T08:40:37;6.65;;;0.90;;
61096;SDS011;46977;50.936;6.908;2022-08-21T08:43:46;3.35;;;0.80;;
61096;SDS011;46977;50.936;6.908;2022-08-21T08:46:52;3.92;;;1.02;;
61096;SDS011;46977;50.936;6.908;2022-08-21T08:49:59;3.15;;;0.63;;
61096;SDS011;46977;50.936;6.908;2022-08-21T08:53:07;1.80;;;0.65;;
61096;SDS011;46977;50.936;6.908;2022-08-21T08:56:11;3.58;;;0.68;;
61096;SDS011;46977;50.936;6.908;2022-08-21T08:59:15;3.40;;;0.80;;
61096;SDS011;46977;50.936;6.908;2022-08-21T09:02:21;2.25;;;0.60;;
61096;SDS011;46977;50.936;6.908;2022-08-21T09:05:30;9.43;;;1.15;;
61096;SDS011;46977;50.936;6.908;2022-08-21T09:08:44;1.48;;;0.60;;
61096;SDS011;46977;50.936;6.908;2022-08-21T09:11:52;4.05;;;0.65;;
61096;SDS011;46977;50.936;6.908;2022-08-21T09:15:02;3.53;;;0.85;;
61096;SDS011;46977;50.936;6.908;2022-08-21T09:18:16;2.78;;;0.50;;
61096;SDS011;46977;50.936;6.908;2022-08-21T09:21:31;2.75;;;0.50;;
61096;SDS011;46977;50.936;6.908;2022-08-21T09:24:42;2.38;;;0.55;;
61096;SDS011;46977;50.936;6.908;2022-08-21T09:27:53;5.20;;;0.80;;
61096;SDS011;46977;50.936;6.908;2022-08-21T09:30:55;3.67;;;0.60;;
61096;SDS011;46977;50.936;6.908;2022-08-21T09:34:01;7.72;;;0.90;;
61096;SDS011;46977;50.936;6.908;2022-08-21T09:37:05;2.78;;;0.68;;
61096;SDS011;46977;50.936;6.908;2022-08-21T09:40:23;5.30;;;0.80;;
61096;SDS011;46977;50.936;6.908;2022-08-21T09:43:33;3.08;;;0.73;;
61096;SDS011;46977;50.936;6.908;2022-08-21T09:46:35;3.10;;;0.60;;
61096;SDS011;46977;50.936;6.908;2022-08-21T09:49:40;4.38;;;0.70;;
61096;SDS011;46977;50.936;6.908;2022-08-21T09:52:46;6.13;;;0.70;;
61096;SDS011;46977;50.936;6.908;2022-08-21T09:55:53;2.60;;;0.60;;
61096;SDS011;46977;50.936;6.908;2022-08-21T09:59:18;3.47;;;0.75;;
61096;SDS011;46977;50.936;6.908;2022-08-21T10:02:26;4.05;;;0.80;;
61096;SDS011;46977;50.936;6.908;2022-08-21T10:05:34;2.83;;;0.80;;
61096;SDS011;46977;50.936;6.908;2022-08-21T10:08:37;7.38;;;0.90;;
61096;SDS011;46977;50.936;6.908;2022-08-21T10:11:43;3.95;;;0.80;;
61096;SDS011;46977;50.936;6.908;2022-08-21T10:14:55;2.40;;;0.50;;
61096;SDS011;46977;50.936;6.908;2022-08-21T10:18:04;3.85;;;0.63;;
61096;SDS011;46977;50.936;6.908;2022-08-21T10:21:17;4.30;;;0.85;;
61096;SDS011;46977;50.936;6.908;2022-08-21T10:24:24;4.15;;;0.90;;
61096;SDS011;46977;50.936;6.908;2022-08-21T10:27:36;4.10;;;1.67;;
61096;SDS011;46977;50.936;6.908;2022-08-21T10:30:43;4.78;;;0.98;;
61096;SDS011;46977;50.936;6.908;2022-08-21T10:33:52;6.30;;;1.10;;
61096;SDS011;46977;50.936;6.908;2022-08-21T10:37:10;2.45;;;0.70;;
61096;SDS011;46977;50.936;6.908;2022-08-21T10:40:22;2.63;;;0.82;;
61096;SDS011;46977;50.936;6.908;2022-08-21T10:43:28;5.10;;;0.90;;
61096;SDS011;46977;50.936;6.908;2022-08-21T10:46:37;4.10;;;0.80;;
61096;SDS011;46977;50.936;6.908;2022-08-21T10:50:01;3.80;;;0.80;;
61096;SDS011;46977;50.936;6.908;2022-08-21T10:53:22;3.80;;;0.70;;
61096;SDS011;46977;50.936;6.908;2022-08-21T10:56:33;4.28;;;0.80;;
61096;SDS011;46977;50.936;6.908;2022-08-21T10:59:38;3.72;;;0.68;;
61096;SDS011;46977;50.936;6.908;2022-08-21T11:02:45;4.40;;;0.80;;
61096;SDS011;46977;50.936;6.908;2022-08-21T11:05:52;2.92;;;0.80;;
61096;SDS011;46977;50.936;6.908;2022-08-21T11:08:58;3.65;;;0.68;;
61096;SDS011;46977;50.936;6.908;2022-08-21T11:12:06;2.38;;;0.70;;
61096;SDS011;46977;50.936;6.908;2022-08-21T11:15:18;4.00;;;0.80;;
61096;SDS011;46977;50.936;6.908;2022-08-21T11:18:32;3.47;;;0.93;;
61096;SDS011;46977;50.936;6.908;2022-08-21T11:21:37;1.67;;;0.50;;
61096;SDS011;46977;50.936;6.908;2022-08-21T11:24:44;5.32;;;1.00;;
61096;SDS011;46977;50.936;6.908;2022-08-21T11:27:54;2.47;;;0.70;;
61096;SDS011;46977;50.936;6.908;2022-08-21T11:31:08;1.45;;;0.60;;
61096;SDS011;46977;50.936;6.908;2022-08-21T11:34:19;2.58;;;0.82;;
61096;SDS011;46977;50.936;6.908;2022-08-21T11:37:31;4.00;;;0.70;;
61096;SDS011;46977;50.936;6.908;2022-08-21T11:40:51;5.13;;;0.80;;
61096;SDS011;46977;50.936;6.908;2022-08-21T11:44:03;4.47;;;0.80;;
61096;SDS011;46977;50.936;6.908;2022-08-21T11:47:11;4.10;;;0.70;;
61096;SDS011;46977;50.936;6.908;2022-08-21T11:50:17;5.72;;;0.80;;
61096;SDS011;46977;50.936;6.908;2022-08-21T11:53:38;3.10;;;0.80;;
61096;SDS011;46977;50.936;6.908;2022-08-21T11:56:45;5.22;;;0.80;;
61096;SDS011;46977;50.936;6.908;2022-08-21T11:59:53;3.60;;;0.70;;
61096;SDS011;46977;50.936;6.908;2022-08-21T12:02:59;5.55;;;0.93;;
61096;SDS011;46977;50.936;6.908;2022-08-21T12:06:10;2.60;;;0.65;;
61096;SDS011;46977;50.936;6.908;2022-08-21T12:09:27;4.85;;;0.95;;
61096;SDS011;46977;50.936;6.908;2022-08-21T12:12:34;2.00;;;0.60;;
61096;SDS011;46977;50.936;6.908;2022-08-21T12:15:37;3.25;;;0.95;;
61096;SDS011;46977;50.936;6.908;2022-08-21T12:18:40;5.93;;;0.85;;
61096;SDS011;46977;50.936;6.908;2022-08-21T12:21:48;2.05;;;0.70;;
61096;SDS011;46977;50.936;6.908;2022-08-21T12:24:51;4.45;;;0.70;;
61096;SDS011;46977;50.936;6.908;2022-08-21T12:28:08;3.75;;;0.93;;
61096;SDS011;46977;50.936;6.908;2022-08-21T12:31:20;2.72;;;0.57;;
61096;SDS011;46977;50.936;6.908;2022-08-21T12:34:25;2.80;;;0.57;;
61096;SDS011;46977;50.936;6.908;2022-08-21T12:37:36;3.67;;;0.70;;
61096;SDS011;46977;50.936;6.908;2022-08-21T12:40:41;4.10;;;0.90;;
61096;SDS011;46977;50.936;6.908;2022-08-21T12:43:47;3.85;;;0.77;;
61096;SDS011;46977;50.936;6.908;2022-08-21T12:46:54;3.35;;;0.60;;
61096;SDS011;46977;50.936;6.908;2022-08-21T12:50:01;3.50;;;0.60;;
61096;SDS011;46977;50.936;6.908;2022-08-21T12:53:05;3.72;;;0.80;;
61096;SDS011;46977;50.936;6.908;2022-08-21T12:56:23;1.90;;;0.57;;
61096;SDS011;46977;50.936;6.908;2022-08-21T12:59:28;2.47;;;0.50;;
61096;SDS011;46977;50.936;6.908;2022-08-21T13:02:32;2.72;;;0.65;;
61096;SDS011;46977;50.936;6.908;2022-08-21T13:05:37;3.35;;;0.55;;
61096;SDS011;46977;50.936;6.908;2022-08-21T13:08:39;3.20;;;0.60;;
61096;SDS011;46977;50.936;6.908;2022-08-21T13:11:47;1.13;;;0.70;;
61096;SDS011;46977;50.936;6.908;2022-08-21T13:14:56;4.35;;;0.73;;
61096;SDS011;46977;50.936;6.908;2022-08-21T13:18:03;7.03;;;0.75;;
61096;SDS011;46977;50.936;6.908;2022-08-21T13:21:10;3.33;;;0.80;;
61096;SDS011;46977;50.936;6.908;2022-08-21T13:24:16;1.58;;;0.70;;
61096;SDS011;46977;50.936;6.908;2022-08-21T13:27:39;4.00;;;0.75;;
61096;SDS011;46977;50.936;6.908;2022-08-21T13:30:46;5.22;;;0.80;;
61096;SDS011;46977;50.936;6.908;2022-08-21T13:33:49;4.40;;;0.90;;
61096;SDS011;46977;50.936;6.908;2022-08-21T13:36:54;2.42;;;0.77;;
61096;SDS011;46977;50.936;6.908;2022-08-21T13:39:57;3.13;;;0.60;;
61096;SDS011;46977;50.936;6.908;2022-08-21T13:43:00;3.28;;;0.88;;
61096;SDS011;46977;50.936;6.908;2022-08-21T13:46:07;2.90;;;0.70;;
61096;SDS011;46977;50.936;6.908;2022-08-21T13:49:13;4.43;;;0.88;;
61096;SDS011;46977;50.936;6.908;2022-08-21T13:52:20;4.57;;;0.65;;
61096;SDS011;46977;50.936;6.908;2022-08-21T13:55:24;3.42;;;0.60;;
61096;SDS011;46977;50.936;6.908;2022-08-21T13:58:41;2.97;;;0.70;;
61096;SDS011;46977;50.936;6.908;2022-08-21T14:01:49;3.72;;;1.20;;
61096;SDS011;46977;50.936;6.908;2022-08-21T14:04:57;1.95;;;0.73;;
61096;SDS011;46977;50.936;6.908;2022-08-21T14:08:03;2.75;;;0.75;;
61096;SDS011;46977;50.936;6.908;2022-08-21T14:11:09;3.17;;;0.80;;
61096;SDS011;46977;50.936;6.908;2022-08-21T14:14:15;3.08;;;0.68;;
61096;SDS011;46977;50.936;6.908;2022-08-21T14:17:28;1.95;;;0.60;;
61096;SDS011;46977;50.936;6.908;2022-08-21T14:20:35;3.40;;;0.77;;
61096;SDS011;46977;50.936;6.908;2022-08-21T14:23:38;4.70;;;0.80;;
61096;SDS011;46977;50.936;6.908;2022-08-21T14:26:44;2.83;;;0.70;;
61096;SDS011;46977;50.936;6.908;2022-08-21T14:29:49;2.53;;;0.63;;
61096;SDS011;46977;50.936;6.908;2022-08-21T14:32:53;1.60;;;0.60;;
61096;SDS011;46977;50.936;6.908;2022-08-21T14:35:55;2.13;;;0.60;;
61096;SDS011;46977;50.936;6.908;2022-08-21T14:38:58;2.80;;;0.90;;
61096;SDS011;46977;50.936;6.908;2022-08-21T14:42:03;2.15;;;0.70;;
61096;SDS011;46977;50.936;6.908;2022-08-21T14:45:07;4.05;;;1.60;;
61096;SDS011;46977;50.936;6.908;2022-08-21T14:48:14;3.25;;;1.08;;
61096;SDS011;46977;50.936;6.908;2022-08-21T14:51:17;4.00;;;1.92;;
61096;SDS011;46977;50.936;6.908;2022-08-21T14:54:19;3.35;;;1.30;;
61096;SDS011;46977;50.936;6.908;2022-08-21T14:57:29;5.80;;;1.73;;
61096;SDS011;46977;50.936;6.908;2022-08-21T15:00:32;6.07;;;3.38;;
61096;SDS011;46977;50.936;6.908;2022-08-21T15:03:39;4.75;;;2.22;;
61096;SDS011;46977;50.936;6.908;2022-08-21T15:06:42;3.90;;;0.73;;
61096;SDS011;46977;50.936;6.908;2022-08-21T15:09:44;1.83;;;0.65;;
61096;SDS011;46977;50.936;6.908;2022-08-21T15:12:47;2.67;;;0.60;;
61096;SDS011;46977;50.936;6.908;2022-08-21T15:15:49;2.92;;;0.90;;
61096;SDS011;46977;50.936;6.908;2022-08-21T15:18:55;2.85;;;0.50;;
61096;SDS011;46977;50.936;6.908;2022-08-21T15:21:58;2.25;;;0.50;;
61096;SDS011;46977;50.936;6.908;2022-08-21T15:25:02;2.35;;;0.68;;
61096;SDS011;46977;50.936;6.908;2022-08-21T15:28:05;1.42;;;0.60;;
61096;SDS011;46977;50.936;6.908;2022-08-21T15:31:07;2.70;;;0.50;;
61096;SDS011;46977;50.936;6.908;2022-08-21T15:34:11;4.53;;;0.50;;
61096;SDS011;46977;50.936;6.908;2022-08-21T15:37:13;2.55;;;0.60;;
61096;SDS011;46977;50.936;6.908;2022-08-21T15:40:16;2.03;;;0.60;;
61096;SDS011;46977;50.936;6.908;2022-08-21T15:43:21;2.85;;;0.70;;
61096;SDS011;46977;50.936;6.908;2022-08-21T15:46:31;2.80;;;0.70;;
61096;SDS011;46977;50.936;6.908;2022-08-21T15:49:36;2.88;;;0.65;;
61096;SDS011;46977;50.936;6.908;2022-08-21T15:52:39;2.78;;;0.50;;
61096;SDS011;46977;50.936;6.908;2022-08-21T15:55:43;1.98;;;0.50;;
61096;SDS011;46977;50.936;6.908;2022-08-21T15:58:46;2.97;;;0.60;;
61096;SDS011;46977;50.936;6.908;2022-08-21T16:01:48;1.40;;;0.47;;
61096;SDS011;46977;50.936;6.908;2022-08-21T16:04:53;1.27;;;0.60;;
61096;SDS011;46977;50.936;6.908;2022-08-21T16:07:55;3.70;;;0.88;;
61096;SDS011;46977;50.936;6.908;2022-08-21T16:10:58;2.40;;;0.60;;
61096;SDS011;46977;50.936;6.908;2022-08-21T16:14:02;4.03;;;0.80;;
61096;SDS011;46977;50.936;6.908;2022-08-21T16:17:04;2.47;;;0.70;;
61096;SDS011;46977;50.936;6.908;2022-08-21T16:20:10;2.28;;;0.93;;
61096;SDS011;46977;50.936;6.908;2022-08-21T16:23:13;2.42;;;0.70;;
61096;SDS011;46977;50.936;6.908;2022-08-21T16:26:16;2.33;;;0.70;;
61096;SDS011;46977;50.936;6.908;2022-08-21T16:29:20;1.50;;;0.70;;
61096;SDS011;46977;50.936;6.908;2022-08-21T16:32:23;1.15;;;0.80;;
61096;SDS011;46977;50.936;6.908;2022-08-21T16:35:31;3.70;;;1.30;;
61096;SDS011;46977;50.936;6.908;2022-08-21T16:38:34;4.40;;;1.08;;
61096;SDS011;46977;50.936;6.908;2022-08-21T16:41:39;2.70;;;0.70;;
61096;SDS011;46977;50.936;6.908;2022-08-21T16:44:41;5.13;;;0.82;;
61096;SDS011;46977;50.936;6.908;2022-08-21T16:47:49;5.00;;;0.75;;
61096;SDS011;46977;50.936;6.908;2022-08-21T16:50:53;1.98;;;0.70;;
61096;SDS011;46977;50.936;6.908;2022-08-21T16:53:58;2.80;;;0.50;;
61096;SDS011;46977;50.936;6.908;2022-08-21T16:57:03;1.67;;;0.73;;
61096;SDS011;46977;50.936;6.908;2022-08-21T17:00:07;2.10;;;0.80;;
61096;SDS011;46977;50.936;6.908;2022-08-21T17:03:16;3.35;;;0.80;;
61096;SDS011;46977;50.936;6.908;2022-08-21T17:06:23;2.20;;;0.70;;
61096;SDS011;46977;50.936;6.908;2022-08-21T17:09:33;1.95;;;0.70;;
61096;SDS011;46977;50.936;6.908;2022-08-21T17:12:35;2.65;;;0.60;;
61096;SDS011;46977;50.936;6.908;2022-08-21T17:15:38;0.90;;;0.60;;
61096;SDS011;46977;50.936;6.908;2022-08-21T17:18:40;2.45;;;0.60;;
61096;SDS011;46977;50.936;6.908;2022-08-21T17:21:44;1.50;;;0.60;;
61096;SDS011;46977;50.936;6.908;2022-08-21T17:24:47;2.17;;;0.70;;
61096;SDS011;46977;50.936;6.908;2022-08-21T17:27:49;2.33;;;0.60;;
61096;SDS011;46977;50.936;6.908;2022-08-21T17:30:52;1.83;;;0.70;;
61096;SDS011;46977;50.936;6.908;2022-08-21T17:33:56;1.58;;;0.40;;
61096;SDS011;46977;50.936;6.908;2022-08-21T17:37:00;3.90;;;0.70;;
61096;SDS011;46977;50.936;6.908;2022-08-21T17:40:03;1.50;;;0.73;;
61096;SDS011;46977;50.936;6.908;2022-08-21T17:43:08;2.85;;;0.70;;
61096;SDS011;46977;50.936;6.908;2022-08-21T17:46:14;3.10;;;0.63;;
61096;SDS011;46977;50.936;6.908;2022-08-21T17:49:19;4.38;;;0.70;;
61096;SDS011;46977;50.936;6.908;2022-08-21T17:52:22;1.80;;;0.50;;
61096;SDS011;46977;50.936;6.908;2022-08-21T17:55:25;3.30;;;0.68;;
61096;SDS011;46977;50.936;6.908;2022-08-21T17:58:30;1.75;;;0.70;;
61096;SDS011;46977;50.936;6.908;2022-08-21T18:01:34;2.75;;;1.35;;
61096;SDS011;46977;50.936;6.908;2022-08-21T18:04:38;2.97;;;0.77;;
61096;SDS011;46977;50.936;6.908;2022-08-21T18:07:42;2.85;;;0.60;;
61096;SDS011;46977;50.936;6.908;2022-08-21T18:10:46;3.20;;;0.52;;
61096;SDS011;46977;50.936;6.908;2022-08-21T18:13:49;2.40;;;0.75;;
61096;SDS011;46977;50.936;6.908;2022-08-21T18:16:53;4.00;;;0.77;;
61096;SDS011;46977;50.936;6.908;2022-08-21T18:19:55;3.60;;;0.68;;
61096;SDS011;46977;50.936;6.908;2022-08-21T18:23:01;2.55;;;0.50;;
61096;SDS011;46977;50.936;6.908;2022-08-21T18:26:04;4.45;;;0.70;;
61096;SDS011;46977;50.936;6.908;2022-08-21T18:29:07;2.03;;;0.60;;
61096;SDS011;46977;50.936;6.908;2022-08-21T18:32:11;3.35;;;0.55;;
61096;SDS011;46977;50.936;6.908;2022-08-21T18:38:36;1.42;;;0.50;;